createdAt,value
2022-09-28T00:00:32.926Z,98307.44
2022-09-28T00:05:34.554Z,98299.47
2022-09-28T00:10:35.801Z,98277.72
2022-09-28T00:15:37.078Z,98271.41
2022-09-28T00:20:38.324Z,98257.94
2022-09-28T00:25:39.583Z,98240.16
2022-09-28T00:30:40.894Z,98232.66
2022-09-28T00:35:43.458Z,98228.53
2022-09-28T00:40:44.805Z,98217.25
2022-09-28T00:45:55.693Z,98216.25
2022-09-28T00:50:59.291Z,98205.28
2022-09-28T00:56:07.021Z,98192.66
2022-09-28T01:01:08.780Z,98179.03
2022-09-28T01:06:10.395Z,98179.50
2022-09-28T01:11:11.649Z,98151.94
2022-09-28T01:16:19.036Z,98145.16
2022-09-28T01:21:22.715Z,98138.34
2022-09-28T01:26:34.680Z,98145.00
2022-09-28T01:31:37.092Z,98126.56
2022-09-28T01:36:47.198Z,98127.72
2022-09-28T01:41:53.109Z,98114.19
2022-09-28T01:46:54.576Z,98115.88
2022-09-28T01:52:13.683Z,98103.75
2022-09-28T01:57:25.541Z,98092.81
2022-09-28T02:02:33.879Z,98083.81
2022-09-28T02:07:42.430Z,98079.34
2022-09-28T02:12:51.748Z,98088.94
2022-09-28T02:17:53.502Z,98064.16
2022-09-28T02:22:57.745Z,98084.78
2022-09-28T02:28:08.297Z,98087.34
2022-09-28T02:33:15.531Z,98090.56
2022-09-28T02:38:17.039Z,98082.09
2022-09-28T02:43:24.543Z,98082.84
2022-09-28T02:48:47.206Z,98079.38
2022-09-28T02:54:20.019Z,98070.22
2022-09-28T02:59:46.351Z,98047.22
2022-09-28T03:05:11.999Z,98061.94
2022-09-28T03:10:34.458Z,98057.94
2022-09-28T03:15:36.847Z,98064.78
2022-09-28T03:20:38.363Z,98067.72
2022-09-28T03:25:39.627Z,98073.53
2022-09-28T03:30:42.157Z,98064.06
2022-09-28T03:35:47.457Z,98080.13
2022-09-28T03:40:56.879Z,98072.16
2022-09-28T03:46:00.004Z,98069.56
2022-09-28T03:51:04.407Z,98070.41
2022-09-28T03:56:08.667Z,98056.44
2022-09-28T04:01:16.580Z,98054.38
2022-09-28T04:06:18.459Z,98054.22
2022-09-28T04:11:19.851Z,98057.81
2022-09-28T04:16:22.610Z,98071.16
2022-09-28T04:21:24.062Z,98073.00
2022-09-28T04:26:27.370Z,98069.38
2022-09-28T04:31:29.944Z,98079.78
2022-09-28T04:36:31.233Z,98084.06
2022-09-28T04:41:33.121Z,98089.38
2022-09-28T04:46:34.973Z,98087.28
2022-09-28T04:51:36.266Z,98089.09
2022-09-28T04:56:37.561Z,98094.69
2022-09-28T05:01:39.567Z,98083.59
2022-09-28T05:06:40.989Z,98088.91
2022-09-28T05:11:42.286Z,98094.69
2022-09-28T05:16:44.422Z,98115.19
2022-09-28T05:21:46.903Z,98108.91
2022-09-28T05:26:48.176Z,98108.41
2022-09-28T05:31:49.495Z,98116.22
2022-09-28T05:36:50.919Z,98120.72
2022-09-28T05:41:52.243Z,98127.38
2022-09-28T05:46:54.652Z,98137.06
2022-09-28T05:51:55.915Z,98124.59
2022-09-28T05:56:57.214Z,98135.53
2022-09-28T06:01:58.592Z,98138.34
2022-09-28T06:06:59.900Z,98144.88
2022-09-28T06:12:01.346Z,98145.69
2022-09-28T06:17:02.695Z,98151.66
2022-09-28T06:22:05.314Z,98155.09
2022-09-28T06:27:06.708Z,98155.03
2022-09-28T06:32:08.345Z,98166.38
2022-09-28T06:37:09.633Z,98168.00
2022-09-28T06:42:10.955Z,98178.44
2022-09-28T06:47:12.345Z,98175.28
2022-09-28T06:52:13.767Z,98182.44
2022-09-28T06:57:15.061Z,98192.28
2022-09-28T07:02:16.472Z,98188.13
2022-09-28T07:07:18.262Z,98200.34
2022-09-28T07:12:19.638Z,98219.00
2022-09-28T07:17:21.003Z,98227.88
2022-09-28T07:22:36.545Z,98222.00
2022-09-28T07:27:41.353Z,98224.25
2022-09-28T07:32:44.899Z,98235.91
2022-09-28T07:37:46.559Z,98244.16
2022-09-28T07:42:48.243Z,98254.44
2022-09-28T07:47:50.744Z,98263.91
2022-09-28T07:52:52.097Z,98275.50
2022-09-28T07:58:00.907Z,98284.13
2022-09-28T08:03:02.673Z,98292.78
2022-09-28T08:08:03.996Z,98295.47
2022-09-28T08:13:07.541Z,98296.75
2022-09-28T08:18:10.130Z,98291.53
2022-09-28T08:23:11.832Z,98307.59
2022-09-28T08:28:13.080Z,98319.81
2022-09-28T08:33:17.761Z,98321.19
2022-09-28T08:38:19.338Z,98328.78
2022-09-28T08:43:38.355Z,98329.88
2022-09-28T08:49:13.427Z,98330.75
2022-09-28T08:54:34.263Z,98336.44
2022-09-28T08:59:48.206Z,98337.31
2022-09-28T09:04:51.914Z,98349.28
2022-09-28T09:10:18.213Z,98344.47
2022-09-28T09:15:31.195Z,98350.78
2022-09-28T09:20:52.238Z,98352.28
2022-09-28T09:26:03.544Z,98345.34
2022-09-28T09:31:24.262Z,98349.38
2022-09-28T09:36:43.881Z,98352.94
2022-09-28T09:42:03.912Z,98352.31
2022-09-28T09:47:11.337Z,98345.88
2022-09-28T09:52:26.437Z,98353.75
2022-09-28T09:57:32.839Z,98356.72
2022-09-28T10:02:35.026Z,98350.22
2022-09-28T10:07:59.225Z,98352.41
2022-09-28T10:13:00.868Z,98364.69
2022-09-28T10:18:10.021Z,98356.31
2022-09-28T10:23:23.446Z,98352.34
2022-09-28T10:28:49.285Z,98364.88
2022-09-28T10:33:53.109Z,98364.81
2022-09-28T10:38:55.798Z,98360.28
2022-09-28T10:44:06.771Z,98367.50
2022-09-28T10:49:18.191Z,98370.69
2022-09-28T10:54:25.164Z,98364.19
2022-09-28T10:59:29.530Z,98367.50
2022-09-28T11:04:40.849Z,98374.25
2022-09-28T11:09:45.762Z,98365.69
2022-09-28T11:14:54.852Z,98358.75
2022-09-28T11:20:30.857Z,98367.16
2022-09-28T11:25:33.304Z,98356.34
2022-09-28T11:30:45.346Z,98347.16
2022-09-28T11:35:54.812Z,98348.16
2022-09-28T11:41:33.395Z,98355.25
2022-09-28T11:46:52.280Z,98351.88
2022-09-28T11:51:57.436Z,98353.72
2022-09-28T11:57:01.268Z,98360.75
2022-09-28T12:02:25.919Z,98358.94
2022-09-28T12:07:58.970Z,98363.63
2022-09-28T12:13:14.408Z,98365.63
2022-09-28T12:18:24.687Z,98366.31
2022-09-28T12:23:33.821Z,98369.84
2022-09-28T12:28:50.322Z,98352.19
2022-09-28T12:33:52.103Z,98367.34
2022-09-28T12:39:30.663Z,98362.09
2022-09-28T12:44:34.098Z,98351.44
2022-09-28T12:55:28.935Z,98361.75
2022-09-28T13:00:43.265Z,98377.94
2022-09-28T13:06:05.211Z,98374.22
2022-09-28T13:11:25.221Z,98369.59
2022-09-28T13:16:41.812Z,98377.47
2022-09-28T13:21:57.728Z,98362.28
2022-09-28T13:27:05.831Z,98374.34
2022-09-28T13:32:09.537Z,98373.53
2022-09-28T13:37:16.787Z,98369.66
2022-09-28T13:42:24.454Z,98369.19
2022-09-28T13:47:45.944Z,98352.44
2022-09-28T13:52:56.705Z,98368.16
2022-09-28T13:58:04.374Z,98363.84
2022-09-28T14:03:14.853Z,98365.88
2022-09-28T14:08:31.304Z,98370.63
2022-09-28T14:13:41.919Z,98375.59
2022-09-28T14:19:06.911Z,98371.06
2022-09-28T14:24:30.893Z,98372.88
2022-09-28T14:29:36.150Z,98366.63
2022-09-28T14:34:42.453Z,98370.81
2022-09-28T14:40:04.048Z,98378.28
2022-09-28T14:45:07.236Z,98382.06
2022-09-28T14:50:27.243Z,98380.72
2022-09-28T14:55:40.631Z,98387.66
2022-09-28T15:00:44.224Z,98389.44
2022-09-28T15:05:47.581Z,98397.94
2022-09-28T15:10:50.467Z,98397.91
2022-09-28T15:15:56.517Z,98405.41
2022-09-28T15:20:58.004Z,98410.94
2022-09-28T15:25:59.299Z,98408.50
2022-09-28T15:31:03.004Z,98412.38
2022-09-28T15:36:07.203Z,98415.84
2022-09-28T15:41:10.184Z,98417.34
2022-09-28T15:46:19.094Z,98418.69
2022-09-28T15:51:21.963Z,98413.63
2022-09-28T15:56:23.515Z,98414.91
2022-09-28T16:01:42.448Z,98428.59
2022-09-28T16:06:44.286Z,98418.59
2022-09-28T16:11:47.690Z,98429.72
2022-09-28T16:16:51.273Z,98429.16
2022-09-28T16:21:55.659Z,98425.56
2022-09-28T16:26:58.543Z,98433.59
2022-09-28T16:32:25.507Z,98434.44
2022-09-28T16:37:31.785Z,98429.00
2022-09-28T16:42:34.150Z,98455.84
2022-09-28T16:47:35.889Z,98440.56
2022-09-28T16:52:59.850Z,98451.97
2022-09-28T16:58:05.033Z,98456.13
2022-09-28T17:03:18.289Z,98451.97
2022-09-28T17:08:22.916Z,98457.25
2022-09-28T17:13:31.425Z,98459.19
2022-09-28T17:18:32.760Z,98467.72
2022-09-28T17:23:34.124Z,98467.34
2022-09-28T17:28:36.760Z,98486.69
2022-09-28T17:33:38.180Z,98483.66
2022-09-28T17:38:39.767Z,98483.47
2022-09-28T17:43:43.886Z,98478.47
2022-09-28T17:48:47.515Z,98475.00
2022-09-28T17:53:49.418Z,98491.22
2022-09-28T17:58:51.043Z,98479.78
2022-09-28T18:03:52.329Z,98489.34
2022-09-28T18:08:53.594Z,98484.84
2022-09-28T18:13:54.907Z,98493.88
2022-09-28T18:18:58.032Z,98492.09
2022-09-28T18:23:59.361Z,98485.28
2022-09-28T18:29:00.715Z,98493.28
2022-09-28T18:34:02.050Z,98491.91
2022-09-28T18:39:03.884Z,98499.09
2022-09-28T18:44:05.361Z,98492.94
2022-09-28T18:49:06.756Z,98509.03
2022-09-28T18:54:08.096Z,98509.69
2022-09-28T18:59:12.275Z,98511.25
2022-09-28T19:04:13.731Z,98509.50
2022-09-28T19:09:18.767Z,98520.19
2022-09-28T19:14:20.257Z,98520.38
2022-09-28T19:19:21.614Z,98522.16
2022-09-28T19:24:22.941Z,98519.75
2022-09-28T19:29:24.465Z,98522.53
2022-09-28T19:34:29.826Z,98521.44
2022-09-28T19:39:31.150Z,98527.84
2022-09-28T19:44:33.161Z,98532.75
2022-09-28T19:49:37.056Z,98540.75
2022-09-28T19:54:38.364Z,98536.69
2022-09-28T19:59:39.793Z,98543.88
2022-09-28T20:04:41.145Z,98540.75
2022-09-28T20:09:42.440Z,98548.03
2022-09-28T20:14:43.845Z,98544.63
2022-09-28T20:19:45.230Z,98550.69
2022-09-28T20:24:46.568Z,98562.19
2022-09-28T20:29:48.108Z,98571.56
2022-09-28T20:34:49.655Z,98575.06
2022-09-28T20:39:50.977Z,98570.31
2022-09-28T20:44:52.477Z,98568.00
2022-09-28T20:49:53.774Z,98571.84
2022-09-28T20:54:55.057Z,98572.56
2022-09-28T20:59:58.646Z,98573.81
2022-09-28T21:05:00.036Z,98573.75
2022-09-28T21:10:01.446Z,98576.16
2022-09-28T21:15:05.965Z,98577.78
2022-09-28T21:20:08.353Z,98600.69
2022-09-28T21:25:09.601Z,98600.25
2022-09-28T21:30:11.345Z,98594.31
2022-09-28T21:35:12.738Z,98599.50
2022-09-28T21:40:15.078Z,98588.88
2022-09-28T21:45:17.248Z,98597.78
2022-09-28T21:50:21.858Z,98599.44
2022-09-28T21:55:23.641Z,98603.44
2022-09-28T22:00:25.105Z,98596.38
2022-09-28T22:05:27.023Z,98589.75
2022-09-28T22:10:28.338Z,98603.13
2022-09-28T22:15:30.187Z,98600.34
2022-09-28T22:20:31.570Z,98597.59
2022-09-28T22:25:32.856Z,98595.66
2022-09-28T22:30:34.598Z,98611.97
2022-09-28T22:35:35.845Z,98615.28
2022-09-28T22:40:38.558Z,98615.31
2022-09-28T22:45:39.870Z,98617.72
2022-09-28T22:50:51.551Z,98618.75
2022-09-28T22:55:52.875Z,98611.44
2022-09-28T23:00:57.613Z,98610.75
2022-09-28T23:05:58.930Z,98613.81
2022-09-28T23:11:00.499Z,98602.84
2022-09-28T23:16:04.827Z,98605.84
2022-09-28T23:21:10.030Z,98599.84
2022-09-28T23:26:21.147Z,98593.88
2022-09-28T23:31:25.108Z,98600.19
2022-09-28T23:36:27.524Z,98601.88
2022-09-28T23:41:29.201Z,98600.06
2022-09-28T23:46:30.858Z,98603.03
2022-09-28T23:51:32.207Z,98606.88
2022-09-28T23:56:33.468Z,98600.88
